createdAt,value
2018-02-11T00:00:44.508Z,0
2018-02-11T00:01:54.370Z,0
2018-02-11T00:03:04.172Z,0
2018-02-11T00:04:13.958Z,0
2018-02-11T00:05:24.069Z,0
2018-02-11T00:06:34.150Z,0
2018-02-11T00:07:43.940Z,0
2018-02-11T00:08:53.975Z,0
2018-02-11T00:10:03.839Z,0
2018-02-11T00:11:13.669Z,0
2018-02-11T00:12:23.709Z,0
2018-02-11T00:13:33.884Z,0
2018-02-11T00:14:43.919Z,0
2018-02-11T00:15:53.764Z,0
2018-02-11T00:17:03.855Z,0
2018-02-11T00:18:13.393Z,0
2018-02-11T00:19:23.482Z,0
2018-02-11T00:20:33.291Z,0
2018-02-11T00:21:43.405Z,0
2018-02-11T00:22:53.457Z,0
2018-02-11T00:24:03.556Z,0
2018-02-11T00:25:13.660Z,0
2018-02-11T00:26:23.750Z,0
2018-02-11T00:27:33.904Z,0
2018-02-11T00:28:44.047Z,0
2018-02-11T00:29:54.149Z,0
2018-02-11T00:31:04.217Z,0
2018-02-11T00:32:14.267Z,0
2018-02-11T00:33:24.341Z,0
2018-02-11T00:34:34.394Z,0
2018-02-11T00:35:44.184Z,0
2018-02-11T00:36:53.723Z,0
2018-02-11T00:38:03.885Z,0
2018-02-11T00:39:13.669Z,0
2018-02-11T00:40:23.732Z,0
2018-02-11T00:41:33.773Z,0
2018-02-11T00:42:43.331Z,0
2018-02-11T00:43:53.406Z,0
2018-02-11T00:45:03.209Z,0
2018-02-11T00:46:13.252Z,0
2018-02-11T00:47:23.320Z,0
2018-02-11T00:48:33.494Z,0
2018-02-11T00:49:43.545Z,0
2018-02-11T00:50:53.322Z,0
2018-02-11T00:52:03.366Z,0
2018-02-11T00:53:13.412Z,0
2018-02-11T00:54:23.256Z,0
2018-02-11T00:55:33.293Z,0
2018-02-11T00:56:43.123Z,0
2018-02-11T00:57:52.914Z,0
2018-02-11T00:59:02.758Z,0
2018-02-11T01:00:12.829Z,0
2018-02-11T01:01:22.090Z,0
2018-02-11T01:02:31.929Z,0
2018-02-11T01:03:41.974Z,0
2018-02-11T01:04:52.045Z,0
2018-02-11T01:06:02.078Z,0
2018-02-11T01:07:12.089Z,0
2018-02-11T01:08:22.183Z,0
2018-02-11T01:09:32.211Z,0
2018-02-11T01:10:42.255Z,0
2018-02-11T01:11:52.038Z,0
2018-02-11T01:13:02.082Z,0
2018-02-11T01:14:11.882Z,0
2018-02-11T01:15:21.667Z,0
2018-02-11T01:16:31.460Z,0
2018-02-11T01:17:41.507Z,0
2018-02-11T01:18:51.665Z,0
2018-02-11T01:20:01.703Z,0
2018-02-11T01:21:11.800Z,0
2018-02-11T01:22:21.589Z,0
2018-02-11T01:23:31.445Z,0
2018-02-11T01:24:41.237Z,0
2018-02-11T01:25:51.073Z,0
2018-02-11T01:27:01.163Z,0
2018-02-11T01:28:11.208Z,0
2018-02-11T01:29:21.256Z,0
2018-02-11T01:30:31.313Z,0
2018-02-11T01:31:41.090Z,0
2018-02-11T01:32:50.871Z,0
2018-02-11T01:34:00.994Z,0
2018-02-11T01:35:10.773Z,0
2018-02-11T01:36:20.862Z,0
2018-02-11T01:37:31.012Z,0
2018-02-11T01:38:40.813Z,0
2018-02-11T01:39:50.848Z,0
2018-02-11T01:41:00.629Z,0
2018-02-11T01:42:10.753Z,0
2018-02-11T01:43:20.792Z,0
2018-02-11T01:44:31.424Z,0
2018-02-11T01:45:41.214Z,0
2018-02-11T01:46:51.023Z,0
2018-02-11T01:48:01.049Z,0
2018-02-11T01:49:11.108Z,0
2018-02-11T01:50:20.922Z,0
2018-02-11T01:51:30.733Z,0
2018-02-11T01:52:40.803Z,0
2018-02-11T01:53:50.853Z,0
2018-02-11T01:55:00.918Z,0
2018-02-11T01:56:10.439Z,0
2018-02-11T01:57:20.504Z,0
2018-02-11T01:58:30.555Z,0
2018-02-11T01:59:40.749Z,0
2018-02-11T02:00:51.078Z,0
2018-02-11T02:02:01.116Z,0
2018-02-11T02:03:11.157Z,0
2018-02-11T02:04:21.248Z,0
2018-02-11T02:05:31.364Z,0
2018-02-11T02:06:41.152Z,0
2018-02-11T02:07:50.669Z,0
2018-02-11T02:09:00.801Z,0
2018-02-11T02:10:10.840Z,0
2018-02-11T02:11:20.929Z,0
2018-02-11T02:12:30.971Z,0
2018-02-11T02:13:41.030Z,0
2018-02-11T02:14:51.112Z,0
2018-02-11T02:16:00.929Z,0
2018-02-11T02:17:10.964Z,0
2018-02-11T02:18:21.375Z,0
2018-02-11T02:19:31.461Z,0
2018-02-11T02:20:41.509Z,0
2018-02-11T02:21:51.624Z,0
2018-02-11T02:23:01.443Z,0
2018-02-11T02:24:11.518Z,0
2018-02-11T02:25:21.340Z,0
2018-02-11T02:26:31.376Z,0
2018-02-11T02:27:41.163Z,0
2018-02-11T02:28:50.693Z,0
2018-02-11T02:30:00.766Z,0
2018-02-11T02:31:10.612Z,0
2018-02-11T02:32:20.666Z,0
2018-02-11T02:33:30.470Z,0
2018-02-11T02:34:41.025Z,0
2018-02-11T02:35:51.099Z,0
2018-02-11T02:37:01.150Z,0
2018-02-11T02:38:11.530Z,0
2018-02-11T02:39:21.606Z,0
2018-02-11T02:40:31.660Z,0
2018-02-11T02:41:41.439Z,0
2018-02-11T02:42:50.996Z,0
2018-02-11T02:44:00.774Z,0
2018-02-11T02:45:10.610Z,0
2018-02-11T02:46:20.694Z,0
2018-02-11T02:47:31.800Z,0
2018-02-11T02:48:41.950Z,0
2018-02-11T02:49:51.536Z,0
2018-02-11T02:51:01.576Z,0
2018-02-11T02:52:11.362Z,0
2018-02-11T02:53:21.391Z,0
2018-02-11T02:54:31.632Z,0
2018-02-11T02:55:41.683Z,0
2018-02-11T02:56:51.879Z,0
2018-02-11T02:58:01.980Z,0
2018-02-11T02:59:12.057Z,0
2018-02-11T03:00:22.112Z,0
2018-02-11T03:01:32.665Z,0
2018-02-11T03:02:42.191Z,0
2018-02-11T03:03:52.238Z,0
2018-02-11T03:35:50.042Z,0
2018-02-11T03:36:59.867Z,0
2018-02-11T03:38:09.900Z,0
2018-02-11T03:39:19.936Z,0
2018-02-11T03:40:30.008Z,0
2018-02-11T03:41:40.997Z,0
2018-02-11T03:42:51.033Z,0
2018-02-11T03:44:01.074Z,0
2018-02-11T03:45:11.124Z,0
2018-02-11T03:46:20.932Z,0
2018-02-11T03:47:31.019Z,0
2018-02-11T03:48:41.083Z,0
2018-02-11T03:49:51.126Z,0
2018-02-11T03:51:01.175Z,0
2018-02-11T03:52:11.223Z,0
2018-02-11T03:53:21.268Z,0
2018-02-11T03:54:31.081Z,0
2018-02-11T03:55:40.598Z,0
2018-02-11T03:56:50.630Z,0
2018-02-11T03:58:00.689Z,0
2018-02-11T03:59:10.619Z,0
2018-02-11T04:00:20.654Z,0
2018-02-11T04:01:30.170Z,0
2018-02-11T04:02:39.951Z,0
2018-02-11T04:03:49.999Z,0
2018-02-11T04:04:59.845Z,0
2018-02-11T04:06:09.883Z,0
2018-02-11T04:07:19.927Z,0
2018-02-11T04:08:29.955Z,0
2018-02-11T04:09:40.022Z,0
2018-02-11T04:10:49.809Z,0
2018-02-11T04:11:59.847Z,0
2018-02-11T04:13:09.636Z,0
2018-02-11T04:14:19.673Z,0
2018-02-11T04:15:29.456Z,0
2018-02-11T04:16:39.239Z,0
2018-02-11T04:17:49.316Z,0
2018-02-11T04:18:59.106Z,0
2018-02-11T04:20:09.141Z,0
2018-02-11T04:21:19.165Z,0
2018-02-11T04:22:29.204Z,0
2018-02-11T04:23:39.258Z,0
2018-02-11T04:24:50.141Z,0
2018-02-11T04:26:00.204Z,0
2018-02-11T04:27:09.995Z,0
2018-02-11T04:28:20.037Z,0
2018-02-11T04:29:30.096Z,0
2018-02-11T04:30:39.874Z,0
2018-02-11T04:31:49.927Z,0
2018-02-11T04:33:00.020Z,0
2018-02-11T04:34:10.064Z,0
2018-02-11T04:35:20.124Z,0
2018-02-11T04:36:29.894Z,0
2018-02-11T04:37:39.923Z,0
2018-02-11T04:38:49.707Z,0
2018-02-11T04:39:59.503Z,0
2018-02-11T04:41:09.282Z,0
2018-02-11T04:42:19.314Z,0
2018-02-11T04:43:28.839Z,0
2018-02-11T04:44:38.623Z,0
2018-02-11T04:45:48.144Z,0
2018-02-11T04:46:58.179Z,0
2018-02-11T04:48:08.215Z,0
2018-02-11T04:49:18.276Z,0
2018-02-11T04:50:28.084Z,0
2018-02-11T04:51:38.126Z,0
2018-02-11T04:52:47.908Z,0
2018-02-11T04:53:57.950Z,0
2018-02-11T04:55:07.978Z,0
2018-02-11T04:56:18.043Z,0
2018-02-11T04:57:28.084Z,0
2018-02-11T04:58:38.121Z,0
2018-02-11T04:59:47.909Z,0
2018-02-11T05:00:57.970Z,0
2018-02-11T05:02:07.998Z,0
2018-02-11T05:03:17.772Z,0
2018-02-11T05:04:27.555Z,0
2018-02-11T05:05:37.599Z,0
2018-02-11T05:06:47.385Z,0
2018-02-11T05:07:57.163Z,0
2018-02-11T05:09:07.203Z,0
2018-02-11T05:10:17.278Z,0
2018-02-11T05:11:27.327Z,0
2018-02-11T05:12:37.387Z,0
2018-02-11T05:13:46.915Z,0
2018-02-11T05:14:57.002Z,0
2018-02-11T05:16:07.041Z,0
2018-02-11T05:17:17.103Z,0
2018-02-11T05:18:27.198Z,0
2018-02-11T05:19:37.241Z,0
2018-02-11T05:20:47.304Z,0
2018-02-11T05:21:57.357Z,0
2018-02-11T05:23:07.167Z,0
2018-02-11T05:24:16.949Z,0
2018-02-11T05:25:26.971Z,0
2018-02-11T05:26:36.758Z,0
2018-02-11T05:27:46.550Z,0
2018-02-11T05:28:55.813Z,0
2018-02-11T05:30:05.867Z,0
2018-02-11T05:31:15.960Z,0
2018-02-11T05:32:25.785Z,0
2018-02-11T05:33:35.584Z,0
2018-02-11T05:34:45.625Z,0
2018-02-11T05:35:55.648Z,0
2018-02-11T05:37:05.694Z,0
2018-02-11T05:38:15.748Z,0
2018-02-11T05:39:25.787Z,0
2018-02-11T05:40:35.821Z,0
2018-02-11T05:41:45.599Z,0
2018-02-11T05:42:55.638Z,4
2018-02-11T05:44:05.680Z,4
2018-02-11T05:45:15.726Z,0
2018-02-11T05:46:25.520Z,0
2018-02-11T05:47:35.556Z,4
2018-02-11T05:48:45.616Z,4
2018-02-11T05:49:55.400Z,4
2018-02-11T05:51:05.897Z,4
2018-02-11T05:52:15.672Z,4
2018-02-11T05:53:25.694Z,8
2018-02-11T05:54:35.746Z,8
2018-02-11T05:55:45.785Z,8
2018-02-11T05:56:55.563Z,8
2018-02-11T05:58:05.360Z,12
2018-02-11T05:59:15.452Z,12
2018-02-11T06:00:25.498Z,16
2018-02-11T06:01:35.542Z,24
2018-02-11T06:02:45.578Z,24
2018-02-11T06:03:55.623Z,24
2018-02-11T06:05:05.722Z,32
2018-02-11T06:06:15.828Z,32
2018-02-11T06:07:25.869Z,40
2018-02-11T06:08:35.408Z,48
2018-02-11T06:09:45.522Z,52
2018-02-11T06:10:55.562Z,60
2018-02-11T06:12:05.609Z,68
2018-02-11T06:13:15.655Z,76
2018-02-11T06:14:25.450Z,88
2018-02-11T06:15:35.500Z,100
2018-02-11T06:16:45.546Z,112
2018-02-11T06:17:55.603Z,128
2018-02-11T06:19:05.388Z,144
2018-02-11T06:20:15.414Z,160
2018-02-11T06:21:25.451Z,180
2018-02-11T06:22:35.284Z,200
2018-02-11T06:23:45.066Z,224
2018-02-11T06:24:55.090Z,252
2018-02-11T06:26:05.120Z,276
2018-02-11T06:27:14.643Z,304
2018-02-11T06:28:24.672Z,324
2018-02-11T06:29:34.449Z,340
2018-02-11T06:30:44.248Z,356
2018-02-11T06:31:54.287Z,368
2018-02-11T06:33:04.387Z,384
2018-02-11T06:34:14.456Z,416
2018-02-11T06:35:24.497Z,436
2018-02-11T06:36:34.554Z,448
2018-02-11T06:37:44.595Z,468
2018-02-11T06:38:54.627Z,484
2018-02-11T06:40:04.187Z,504
2018-02-11T06:41:14.235Z,532
2018-02-11T06:42:24.013Z,572
2018-02-11T06:43:33.791Z,620
2018-02-11T06:44:43.852Z,664
2018-02-11T06:45:53.658Z,708
2018-02-11T06:47:03.709Z,764
2018-02-11T06:48:13.757Z,808
2018-02-11T06:49:23.808Z,836
2018-02-11T06:50:33.856Z,844
2018-02-11T06:51:43.889Z,856
2018-02-11T06:52:53.950Z,884
2018-02-11T06:54:03.995Z,920
2018-02-11T06:55:14.061Z,960
2018-02-11T06:56:24.111Z,996
2018-02-11T06:57:33.873Z,1032
2018-02-11T06:58:43.909Z,1068
2018-02-11T06:59:53.954Z,1128
2018-02-11T07:01:04.007Z,1212
2018-02-11T07:02:13.794Z,1328
2018-02-11T07:03:23.838Z,1448
2018-02-11T07:04:33.876Z,1532
2018-02-11T07:05:43.420Z,1588
2018-02-11T07:06:53.492Z,1652
2018-02-11T07:08:03.529Z,1768
2018-02-11T07:09:13.302Z,1852
2018-02-11T07:10:23.075Z,1764
2018-02-11T07:11:33.109Z,1664
2018-02-11T07:12:42.895Z,1568
2018-02-11T07:13:52.413Z,1508
2018-02-11T07:15:02.242Z,1492
2018-02-11T07:16:12.293Z,1468
2018-02-11T07:17:22.398Z,1396
2018-02-11T07:18:32.438Z,1256
2018-02-11T07:19:42.230Z,1116
2018-02-11T07:20:52.276Z,1080
2018-02-11T07:22:02.317Z,1128
2018-02-11T07:23:12.651Z,1184
2018-02-11T07:24:22.689Z,1228
2018-02-11T07:25:32.736Z,1272
2018-02-11T07:26:42.826Z,1308
2018-02-11T07:27:52.891Z,1348
2018-02-11T07:29:02.677Z,1380
2018-02-11T07:30:12.724Z,1424
2018-02-11T07:31:22.516Z,1504
2018-02-11T07:32:32.305Z,1564
2018-02-11T07:33:42.355Z,1572
2018-02-11T07:34:52.387Z,1648
2018-02-11T07:36:02.192Z,1796
2018-02-11T07:37:12.241Z,1904
2018-02-11T07:38:22.297Z,1952
2018-02-11T07:39:32.351Z,1904
2018-02-11T07:40:42.382Z,1916
2018-02-11T07:41:52.168Z,2028
2018-02-11T07:43:02.220Z,2212
2018-02-11T07:44:12.006Z,2376
2018-02-11T07:45:21.779Z,2404
2018-02-11T07:46:31.837Z,2268
2018-02-11T07:47:41.881Z,2168
2018-02-11T07:48:51.923Z,2172
2018-02-11T07:50:01.963Z,2300
2018-02-11T07:51:11.751Z,2508
2018-02-11T07:52:21.843Z,2696
2018-02-11T07:53:31.885Z,2748
2018-02-11T07:54:41.664Z,2628
2018-02-11T07:55:51.456Z,2484
2018-02-11T07:57:01.491Z,2356
2018-02-11T07:58:11.129Z,2296
2018-02-11T07:59:20.919Z,2296
2018-02-11T08:00:30.966Z,2336
2018-02-11T08:01:41.013Z,2400
2018-02-11T08:02:50.525Z,2444
2018-02-11T08:04:00.560Z,2460
2018-02-11T08:05:10.327Z,2484
2018-02-11T08:06:20.381Z,2552
2018-02-11T08:07:30.173Z,2660
2018-02-11T08:08:40.216Z,2748
2018-02-11T08:09:50.271Z,2776
2018-02-11T08:11:00.329Z,2736
2018-02-11T08:12:10.373Z,2712
2018-02-11T08:13:20.435Z,2724
2018-02-11T08:14:30.464Z,2928
2018-02-11T08:15:40.558Z,2960
2018-02-11T08:16:50.605Z,3068
2018-02-11T08:18:00.643Z,2980
2018-02-11T08:19:10.689Z,2936
2018-02-11T08:20:20.507Z,3008
2018-02-11T08:21:30.579Z,3068
2018-02-11T08:22:40.625Z,3728
2018-02-11T08:23:50.422Z,3492
2018-02-11T08:25:00.493Z,3168
2018-02-11T08:26:10.266Z,3180
2018-02-11T08:27:20.062Z,3320
2018-02-11T08:28:30.119Z,3228
2018-02-11T08:29:39.904Z,3104
2018-02-11T08:30:49.704Z,3280
2018-02-11T08:31:59.782Z,2912
2018-02-11T08:33:09.560Z,2928
2018-02-11T08:34:19.091Z,3028
2018-02-11T08:35:29.144Z,3036
2018-02-11T08:36:39.185Z,2912
2018-02-11T08:37:49.225Z,2860
2018-02-11T08:38:59.007Z,2948
2018-02-11T08:40:09.076Z,3164
2018-02-11T08:41:19.132Z,4100
2018-02-11T08:42:28.965Z,4472
2018-02-11T08:43:39.004Z,4452
2018-02-11T08:44:49.102Z,4404
2018-02-11T08:45:59.146Z,4296
2018-02-11T08:47:09.209Z,4320
2018-02-11T08:48:19.250Z,4360
2018-02-11T08:49:29.291Z,4576
2018-02-11T08:50:39.094Z,4676
2018-02-11T08:51:49.129Z,4668
2018-02-11T08:52:58.956Z,4616
2018-02-11T08:54:08.474Z,4644
2018-02-11T08:55:18.535Z,4692
2018-02-11T08:56:28.326Z,4852
2018-02-11T08:57:38.104Z,4920
2018-02-11T08:58:48.160Z,4948
2018-02-11T08:59:58.258Z,4928
2018-02-11T09:01:08.350Z,4944
2018-02-11T09:02:18.401Z,4980
2018-02-11T09:03:28.458Z,4992
2018-02-11T09:04:38.539Z,5008
2018-02-11T09:05:48.359Z,5008
2018-02-11T09:06:58.399Z,5080
2018-02-11T09:08:08.197Z,5144
2018-02-11T09:09:18.234Z,5160
2018-02-11T09:10:28.294Z,5180
2018-02-11T09:11:38.344Z,5172
2018-02-11T09:12:48.174Z,5172
2018-02-11T09:13:58.328Z,5208
2018-02-11T09:15:08.391Z,5196
2018-02-11T09:16:18.475Z,5220
2018-02-11T09:17:28.534Z,5208
2018-02-11T09:18:38.590Z,5272
2018-02-11T09:19:48.682Z,5348
2018-02-11T09:20:58.736Z,5396
2018-02-11T09:22:08.869Z,5444
2018-02-11T09:23:18.681Z,5436
2018-02-11T09:24:28.737Z,5448
2018-02-11T09:25:38.795Z,5456
2018-02-11T09:26:48.604Z,5476
2018-02-11T09:27:58.393Z,5440
2018-02-11T09:29:08.491Z,5424
2018-02-11T09:30:18.533Z,5468
2018-02-11T09:31:28.612Z,5496
2018-02-11T09:32:38.648Z,5608
2018-02-11T09:33:48.732Z,5632
2018-02-11T09:34:58.813Z,5652
2018-02-11T09:36:08.887Z,5644
2018-02-11T09:37:18.982Z,5676
2018-02-11T09:38:29.040Z,5704
2018-02-11T09:39:39.123Z,5784
2018-02-11T09:40:49.199Z,5804
2018-02-11T09:41:59.270Z,5808
2018-02-11T09:43:09.331Z,5860
2018-02-11T09:44:19.121Z,5840
2018-02-11T09:45:29.208Z,5804
2018-02-11T09:46:39.056Z,5768
2018-02-11T09:47:48.598Z,5788
2018-02-11T09:48:58.649Z,5860
2018-02-11T09:50:08.718Z,5884
2018-02-11T09:51:18.512Z,5944
2018-02-11T09:52:28.589Z,5924
2018-02-11T09:53:38.628Z,5944
2018-02-11T09:54:48.675Z,5940
2018-02-11T09:55:58.727Z,6020
2018-02-11T09:57:08.806Z,5936
2018-02-11T09:58:18.604Z,5916
2018-02-11T09:59:28.683Z,6088
2018-02-11T10:00:38.736Z,6060
2018-02-11T10:01:48.560Z,5904
2018-02-11T10:02:58.360Z,5928
2018-02-11T10:04:07.901Z,6144
2018-02-11T10:05:17.690Z,6104
2018-02-11T10:06:27.711Z,6228
2018-02-11T10:07:37.752Z,6204
2018-02-11T10:08:47.815Z,6004
2018-02-11T10:09:57.601Z,6172
2018-02-11T10:11:07.666Z,6268
2018-02-11T10:12:17.701Z,6256
2018-02-11T10:13:27.253Z,6268
2018-02-11T10:14:37.328Z,6020
2018-02-11T10:15:47.393Z,6340
2018-02-11T10:16:57.454Z,6332
2018-02-11T10:18:07.242Z,6276
2018-02-11T10:19:17.046Z,6088
2018-02-11T10:20:27.165Z,6064
2018-02-11T10:21:37.284Z,5900
2018-02-11T10:22:47.088Z,6060
2018-02-11T10:23:56.877Z,6208
2018-02-11T10:25:06.936Z,6236
2018-02-11T10:26:16.470Z,6308
2018-02-11T10:27:26.333Z,6348
2018-02-11T10:28:36.450Z,6252
2018-02-11T10:29:46.495Z,6280
2018-02-11T10:30:56.560Z,6292
2018-02-11T10:32:06.636Z,6292
2018-02-11T10:33:16.683Z,6352
2018-02-11T10:34:26.479Z,6428
2018-02-11T10:35:36.544Z,6452
2018-02-11T10:36:46.603Z,6444
2018-02-11T10:37:56.394Z,6404
2018-02-11T10:39:06.452Z,6472
2018-02-11T10:40:16.507Z,6480
2018-02-11T10:41:26.578Z,6508
2018-02-11T10:42:36.363Z,6592
2018-02-11T10:43:46.165Z,6600
2018-02-11T10:44:56.214Z,6476
2018-02-11T10:46:06.006Z,6456
2018-02-11T10:47:16.075Z,6432
2018-02-11T10:48:25.873Z,6540
2018-02-11T10:49:35.655Z,6576
2018-02-11T10:50:45.710Z,6656
2018-02-11T10:51:55.750Z,6428
2018-02-11T10:53:05.814Z,6496
2018-02-11T10:54:15.617Z,6464
2018-02-11T10:55:25.407Z,6564
2018-02-11T10:56:35.462Z,6776
2018-02-11T10:57:45.275Z,6820
2018-02-11T10:58:55.346Z,6280
2018-02-11T11:00:05.431Z,6456
2018-02-11T11:01:15.490Z,6168
2018-02-11T11:02:25.575Z,6096
2018-02-11T11:03:35.625Z,4664
2018-02-11T11:04:45.665Z,5896
2018-02-11T11:05:55.790Z,6888
2018-02-11T11:07:05.864Z,7080
2018-02-11T11:08:15.950Z,7328
2018-02-11T11:09:26.042Z,6800
2018-02-11T11:10:36.137Z,7024
2018-02-11T11:11:45.957Z,7044
2018-02-11T11:12:56.078Z,4912
2018-02-11T11:14:06.219Z,7244
2018-02-11T11:15:16.062Z,6504
2018-02-11T11:16:26.171Z,7404
2018-02-11T11:17:36.229Z,7384
2018-02-11T11:18:46.287Z,7144
2018-02-11T11:19:56.142Z,6944
2018-02-11T11:21:06.074Z,7224
2018-02-11T11:22:15.654Z,7340
2018-02-11T11:23:25.443Z,6528
2018-02-11T11:24:35.511Z,5712
2018-02-11T11:25:45.648Z,5916
2018-02-11T11:26:55.723Z,6932
2018-02-11T11:28:05.800Z,7352
2018-02-11T11:29:15.895Z,7724
2018-02-11T11:30:25.989Z,7880
2018-02-11T11:31:36.105Z,7800
2018-02-11T11:32:46.202Z,7844
2018-02-11T11:33:56.271Z,7596
2018-02-11T11:35:06.095Z,7304
2018-02-11T11:36:16.188Z,7132
2018-02-11T11:37:26.242Z,6704
2018-02-11T11:38:36.063Z,4400
2018-02-11T11:39:45.850Z,5776
2018-02-11T11:40:55.932Z,7060
2018-02-11T11:42:06.013Z,7720
2018-02-11T11:43:16.063Z,7848
2018-02-11T11:44:25.957Z,7544
2018-02-11T11:45:36.082Z,7244
2018-02-11T11:46:46.132Z,7420
2018-02-11T11:47:56.180Z,5688
2018-02-11T11:49:06.242Z,4488
2018-02-11T11:50:16.030Z,4344
2018-02-11T11:51:26.114Z,4296
2018-02-11T11:52:36.183Z,4868
2018-02-11T11:53:46.250Z,3984
2018-02-11T11:54:56.351Z,3624
2018-02-11T11:56:06.410Z,3500
2018-02-11T11:57:16.499Z,3452
2018-02-11T11:58:26.554Z,3352
2018-02-11T11:59:36.329Z,3228
2018-02-11T12:00:46.122Z,3284
2018-02-11T12:01:56.201Z,3864
2018-02-11T12:03:06.271Z,3308
2018-02-11T12:04:16.341Z,3400
2018-02-11T12:05:26.432Z,3224
2018-02-11T12:06:36.613Z,3384
2018-02-11T12:07:46.460Z,3784
2018-02-11T12:08:56.368Z,4308
2018-02-11T12:10:06.423Z,4836
2018-02-11T12:11:16.491Z,5500
2018-02-11T12:12:26.539Z,7428
2018-02-11T12:13:36.360Z,8660
2018-02-11T12:14:46.422Z,8892
2018-02-11T12:15:56.245Z,8624
2018-02-11T12:17:06.120Z,8548
2018-02-11T12:18:16.202Z,8768
2018-02-11T12:19:26.261Z,8468
2018-02-11T12:20:36.381Z,7656
2018-02-11T12:21:46.451Z,4924
2018-02-11T12:22:56.322Z,3948
2018-02-11T12:24:06.368Z,3764
2018-02-11T12:25:16.674Z,4156
2018-02-11T12:26:26.799Z,3896
2018-02-11T12:27:36.843Z,4032
2018-02-11T12:28:46.662Z,4288
2018-02-11T12:29:56.586Z,5656
2018-02-11T12:31:06.473Z,5768
2018-02-11T12:32:16.355Z,4012
2018-02-11T12:33:26.434Z,3252
2018-02-11T12:34:36.502Z,3028
2018-02-11T12:35:46.596Z,2948
2018-02-11T12:36:56.637Z,2936
2018-02-11T12:38:06.716Z,2984
2018-02-11T12:39:16.776Z,2988
2018-02-11T12:40:27.112Z,2984
2018-02-11T12:41:37.224Z,2896
2018-02-11T12:42:47.303Z,2812
2018-02-11T12:43:57.379Z,2752
2018-02-11T12:45:07.526Z,2716
2018-02-11T12:46:17.561Z,2728
2018-02-11T12:47:27.780Z,2792
2018-02-11T12:48:37.880Z,3032
2018-02-11T12:49:48.954Z,5652
2018-02-11T12:50:59.072Z,5844
2018-02-11T12:52:08.889Z,6216
2018-02-11T12:53:18.945Z,6228
2018-02-11T12:54:29.005Z,6344
2018-02-11T12:55:39.504Z,6660
2018-02-11T12:56:49.704Z,6720
2018-02-11T12:57:59.260Z,6672
2018-02-11T12:59:09.056Z,6980
2018-02-11T13:00:19.122Z,7040
2018-02-11T13:01:29.185Z,7428
2018-02-11T13:02:39.247Z,7512
2018-02-11T13:03:49.293Z,7036
2018-02-11T13:04:59.356Z,6760
2018-02-11T13:06:09.412Z,6924
2018-02-11T13:07:19.494Z,6892
2018-02-11T13:08:29.308Z,6908
2018-02-11T13:09:39.103Z,6884
2018-02-11T13:10:49.219Z,6960
2018-02-11T13:11:59.292Z,6648
2018-02-11T13:13:08.833Z,4792
2018-02-11T13:14:18.891Z,4688
2018-02-11T13:15:28.988Z,4732
2018-02-11T13:16:39.049Z,5936
2018-02-11T13:17:49.117Z,6136
2018-02-11T13:18:59.178Z,6188
2018-02-11T13:20:09.254Z,5116
2018-02-11T13:21:19.310Z,4892
2018-02-11T13:22:29.378Z,4472
2018-02-11T13:23:39.443Z,4168
2018-02-11T13:24:49.510Z,3828
2018-02-11T13:25:59.090Z,3592
2018-02-11T13:27:08.898Z,3476
2018-02-11T13:28:18.944Z,3468
2018-02-11T13:29:28.767Z,3444
2018-02-11T13:30:38.574Z,3464
2018-02-11T13:31:48.643Z,3400
2018-02-11T13:32:58.691Z,3148
2018-02-11T13:34:08.786Z,2868
2018-02-11T13:35:18.838Z,2684
2018-02-11T13:36:28.954Z,2592
2018-02-11T13:37:39.014Z,2624
2018-02-11T13:38:49.068Z,2684
2018-02-11T13:39:59.132Z,2676
2018-02-11T13:41:09.246Z,2596
2018-02-11T13:42:19.347Z,2496
2018-02-11T13:43:29.174Z,2420
2018-02-11T13:44:39.242Z,2388
2018-02-11T13:45:49.044Z,2268
2018-02-11T13:47:00.106Z,2116
2018-02-11T13:48:10.161Z,1972
2018-02-11T13:49:19.942Z,1892
2018-02-11T13:50:29.740Z,2140
2018-02-11T13:51:39.805Z,1924
2018-02-11T13:52:49.887Z,2148
2018-02-11T13:53:59.925Z,2284
2018-02-11T13:55:09.454Z,2840
2018-02-11T13:56:18.989Z,3184
2018-02-11T13:57:28.804Z,2960
2018-02-11T13:58:38.608Z,3324
2018-02-11T13:59:48.476Z,3012
2018-02-11T14:00:58.524Z,3512
2018-02-11T14:02:08.326Z,3428
2018-02-11T14:03:18.388Z,2892
2018-02-11T14:04:28.450Z,2892
2018-02-11T14:05:38.527Z,3104
2018-02-11T14:06:48.584Z,3128
2018-02-11T14:07:58.656Z,3916
2018-02-11T14:09:09.620Z,4040
2018-02-11T14:10:19.415Z,4212
2018-02-11T14:11:29.492Z,4196
2018-02-11T14:12:39.528Z,3740
2018-02-11T14:13:49.589Z,3732
2018-02-11T14:14:59.638Z,4408
2018-02-11T14:16:09.695Z,4596
2018-02-11T14:17:19.761Z,4500
2018-02-11T14:18:29.835Z,4400
2018-02-11T14:19:39.902Z,4192
2018-02-11T14:20:49.959Z,3048
2018-02-11T14:21:59.751Z,2868
2018-02-11T14:23:09.817Z,2768
2018-02-11T14:24:19.893Z,2708
2018-02-11T14:25:29.714Z,2656
2018-02-11T14:26:39.773Z,2752
2018-02-11T14:27:49.566Z,3020
2018-02-11T14:28:59.637Z,3224
2018-02-11T14:30:09.744Z,3468
2018-02-11T14:31:19.281Z,3548
2018-02-11T14:32:29.424Z,3588
2018-02-11T14:33:39.495Z,3596
2018-02-11T14:34:49.554Z,3604
2018-02-11T14:35:59.592Z,3648
2018-02-11T14:37:09.650Z,3648
2018-02-11T14:38:19.478Z,3552
2018-02-11T14:39:29.541Z,3340
2018-02-11T14:40:39.083Z,3144
2018-02-11T14:41:49.161Z,3072
2018-02-11T14:42:59.202Z,3084
2018-02-11T14:44:09.257Z,3056
2018-02-11T14:45:19.324Z,2988
2018-02-11T14:46:29.396Z,2840
2018-02-11T14:47:40.543Z,2676
2018-02-11T14:48:50.625Z,2588
2018-02-11T14:50:00.696Z,2496
2018-02-11T14:51:10.787Z,2412
2018-02-11T14:52:20.605Z,2380
2018-02-11T14:53:30.640Z,2348
2018-02-11T14:54:40.219Z,2324
2018-02-11T14:55:50.269Z,2284
2018-02-11T14:57:00.086Z,2220
2018-02-11T14:58:10.152Z,2172
2018-02-11T14:59:20.218Z,2112
2018-02-11T15:00:30.285Z,2048
2018-02-11T15:01:40.339Z,1984
2018-02-11T15:02:50.457Z,1940
2018-02-11T15:04:00.323Z,1908
2018-02-11T15:05:09.838Z,1888
2018-02-11T15:06:19.919Z,1876
2018-02-11T15:07:29.970Z,1868
2018-02-11T15:08:40.094Z,1844
2018-02-11T15:09:50.151Z,1808
2018-02-11T15:11:00.212Z,1744
2018-02-11T15:12:10.370Z,1672
2018-02-11T15:13:19.904Z,1596
2018-02-11T15:14:29.957Z,1528
2018-02-11T15:15:40.008Z,1468
2018-02-11T15:16:50.054Z,1416
2018-02-11T15:18:00.141Z,1368
2018-02-11T15:19:10.219Z,1320
2018-02-11T15:20:20.019Z,1272
2018-02-11T15:21:30.098Z,1236
2018-02-11T15:22:39.903Z,1196
2018-02-11T15:23:49.725Z,1148
2018-02-11T15:24:59.521Z,1116
2018-02-11T15:26:09.593Z,1076
2018-02-11T15:27:19.644Z,1044
2018-02-11T15:28:29.446Z,1008
2018-02-11T15:29:40.725Z,968
2018-02-11T15:30:50.796Z,928
2018-02-11T15:32:00.869Z,896
2018-02-11T15:33:10.928Z,864
2018-02-11T15:34:21.015Z,836
2018-02-11T15:35:31.089Z,804
2018-02-11T15:36:41.161Z,764
2018-02-11T15:37:51.230Z,732
2018-02-11T15:39:01.286Z,700
2018-02-11T15:40:11.348Z,664
2018-02-11T15:41:21.533Z,632
2018-02-11T15:42:31.592Z,604
2018-02-11T15:43:41.675Z,576
2018-02-11T15:44:51.741Z,544
2018-02-11T15:46:01.819Z,512
2018-02-11T15:47:11.659Z,484
2018-02-11T15:48:21.482Z,456
2018-02-11T15:49:31.544Z,432
2018-02-11T15:50:41.598Z,408
2018-02-11T15:51:51.427Z,384
2018-02-11T15:53:01.519Z,356
2018-02-11T15:54:11.661Z,336
2018-02-11T15:55:21.737Z,312
2018-02-11T15:56:31.654Z,284
2018-02-11T15:57:41.728Z,264
2018-02-11T15:58:51.508Z,236
2018-02-11T16:00:01.557Z,220
2018-02-11T16:01:11.611Z,204
2018-02-11T16:02:21.689Z,188
2018-02-11T16:03:31.755Z,172
2018-02-11T16:04:41.800Z,156
2018-02-11T16:05:51.597Z,140
2018-02-11T16:07:01.417Z,128
2018-02-11T16:08:11.483Z,120
2018-02-11T16:09:21.270Z,104
2018-02-11T16:10:31.341Z,92
2018-02-11T16:11:41.155Z,84
2018-02-11T16:12:50.683Z,72
2018-02-11T16:14:00.744Z,64
2018-02-11T16:15:10.820Z,56
2018-02-11T16:16:20.932Z,44
2018-02-11T16:17:31.013Z,40
2018-02-11T16:18:40.809Z,32
2018-02-11T16:19:50.395Z,28
2018-02-11T16:21:00.488Z,20
2018-02-11T16:22:10.572Z,20
2018-02-11T16:23:20.618Z,16
2018-02-11T16:24:30.696Z,12
2018-02-11T16:25:40.774Z,12
2018-02-11T16:26:50.571Z,8
2018-02-11T16:28:00.389Z,8
2018-02-11T16:29:10.470Z,8
2018-02-11T16:30:20.559Z,4
2018-02-11T16:31:30.684Z,4
2018-02-11T16:32:44.834Z,0
2018-02-11T16:33:54.656Z,4
2018-02-11T16:35:05.074Z,0
2018-02-11T16:36:15.154Z,0
2018-02-11T16:37:26.085Z,4
2018-02-11T16:38:37.051Z,4
2018-02-11T16:39:46.867Z,0
2018-02-11T16:40:56.934Z,0
2018-02-11T16:42:06.985Z,0